Skip to main content.

Nearby METAR Reports

 

KJYR - York, Nebraska, USA
Distance from station: NW 27mi, 43km
Updated: Sat, 18-May-2024 10:55pm CDT
Clear
Clear
 Wind from NE
Wind: NE 10 mph , 17 km/h
Temperature: 61°F , 16°C
Dew Point: 43°F , 6°C
Humidity: 52%
Barometer: 29.98 inHg , 1015.2 hPa
Clouds: Clear
Visibility: 10 miles , 16 km
2024/05/19 03:55 KJYR 190355Z AUTO 05009KT 10SM CLR 16/06 A2998 RMK AO2
KLNK - Lincoln, Nebraska, USA
Distance from station: ENE 27mi, 44km
Updated: Sat, 18-May-2024 10:54pm CDT
Clear
Clear
 Wind from N
Wind: N 9 mph , 15 km/h
Temperature: 61°F , 16°C
Dew Point: 46°F , 8°C
Humidity: 59%
Barometer: 29.98 inHg , 1015.2 hPa
Clouds: Clear
Visibility: 10 miles , 16 km
2024/05/19 03:54 KLNK 190354Z AUTO 01008KT 10SM CLR 16/08 A2998 RMK AO2 SLP145 T01610083
 
KBIE - Beatrice Municip, Nebraska, USA
Distance from station: SE 36mi, 58km
Updated: Sat, 18-May-2024 10:55pm CDT
Clear
Clear
 Wind from NE
Wind: NE 6 mph , 9 km/h
Temperature: 64°F , 18°C
Dew Point: 52°F , 11°C
Humidity: 64%
Barometer: 29.96 inHg , 1014.6 hPa
Clouds: Clear
Visibility: 10 miles , 16 km
2024/05/19 03:55 KBIE 190355Z AUTO 04005KT 10SM CLR 18/11 A2996 RMK AO2 T01760110
KHJH - Hebron Muni, Nebraska, USA
Distance from station: SSW 40mi, 64km
Updated: Sat, 18-May-2024 10:55pm CDT
Clear
Clear
 Wind from E
Wind: E 6 mph , 9 km/h
Temperature: 66°F , 19°C
Dew Point: 48°F , 9°C
Humidity: 52%
Barometer: 29.97 inHg , 1014.9 hPa
Clouds: Clear
Visibility: 10 miles , 16 km
2024/05/19 03:55 KHJH 190355Z AUTO 08005KT 10SM CLR 19/09 A2997 RMK AO2 T01940091
 
KAUH - Aurora, Nebraska, USA
Distance from station: WNW 44mi, 70km
Updated: Sat, 18-May-2024 10:55pm CDT
Clear
Clear
 Wind from NNE
Wind: NNE 8 mph , 13 km/h
Temperature: 59°F , 15°C
Dew Point: 46°F , 8°C
Humidity: 63%
Barometer: 29.99 inHg , 1015.6 hPa
Clouds: Clear
Visibility: 10 miles , 16 km
2024/05/19 03:55 KAUH 190355Z AUTO 03007KT 10SM CLR 15/08 A2999 RMK AO2 T01510080
KAHQ - Wahoo, Nebraska, USA
Distance from station: NE 51mi, 82km
Updated: Sat, 18-May-2024 10:55pm CDT
Clear
Clear
 Wind from N
Wind: N 9 mph , 15 km/h
Temperature: 59°F , 15°C
Dew Point: 45°F , 7°C
Humidity: 59%
Barometer: 29.98 inHg , 1015.2 hPa
Clouds: Clear
Visibility: 10 miles , 16 km
2024/05/19 03:55 KAHQ 190355Z AUTO 36008KT 10SM CLR 15/07 A2998 RMK AO2 T01530073
 
KOLU - Columbus Muni, Nebraska, USA
Distance from station: N 55mi, 88km
Updated: Sat, 18-May-2024 10:56pm CDT

 Wind from NNE
Wind: NNE 6 mph , 9 km/h
Temperature: 57°F , 14°C
Dew Point: 43°F , 6°C
Humidity: 59%
Barometer: 30.00 inHg , 1015.9 hPa
Visibility: 9 miles , 14 km
2024/05/19 03:56 KOLU 190356Z AUTO 02005KT 9SM 14/06 A3000 RMK AO2 SLP157 T01390056 $
KGRI - Grand Island, Nebraska, USA
Distance from station: WNW 61mi, 99km
Updated: Sat, 18-May-2024 10:53pm CDT
Clear
Clear
 Wind from NNE
Wind: NNE 8 mph , 13 km/h
Temperature: 57°F , 14°C
Dew Point: 46°F , 8°C
Humidity: 67%
Barometer: 30.00 inHg , 1015.9 hPa
Clouds: Clear
Visibility: 10 miles , 16 km
2024/05/19 03:53 KGRI 190353Z AUTO 02007KT 10SM CLR 14/08 A3000 RMK AO2 SLP155 T01390083
 
KHSI - Hastings, Nebraska, USA
Distance from station: W 64mi, 103km
Updated: Sat, 18-May-2024 10:53pm CDT
Clear
Clear
 Wind from NE
Wind: NE 6 mph , 9 km/h
Temperature: 59°F , 15°C
Dew Point: 46°F , 8°C
Humidity: 63%
Barometer: 29.99 inHg , 1015.6 hPa
Clouds: Clear
Visibility: 9 miles , 14 km
2024/05/19 03:53 KHSI 190353Z AUTO 04005KT 9SM CLR 15/08 A2999 RMK AO2 SLP148 T01500078
KFET - Fremont Muni Arp, Nebraska, USA
Distance from station: NNE 66mi, 106km
Updated: Sat, 18-May-2024 10:55pm CDT
Clear
Clear
 Wind from N
Wind: N 6 mph , 9 km/h
Temperature: 63°F , 17°C
Dew Point: 39°F , 4°C
Humidity: 42%
Barometer: 29.99 inHg , 1015.6 hPa
Clouds: Clear
Visibility: 10 miles , 16 km
2024/05/19 03:55 KFET 190355Z AUTO 36005KT 10SM CLR 17/04 A2999 RMK AO2 T01650043
 
KMLE - Omaha/Millard, Nebraska, USA
Distance from station: NE 69mi, 110km
Updated: Sat, 18-May-2024 10:55pm CDT
Clear
Clear
 Wind from N
Wind: N 5 mph , 7 km/h
Temperature: 70°F , 21°C
Dew Point: 43°F , 6°C
Humidity: 38%
Barometer: 29.97 inHg , 1014.9 hPa
Clouds: Clear
Visibility: 10 miles , 16 km
2024/05/19 03:55 KMLE 190355Z AUTO 35004KT 10SM CLR 21/06 A2997 RMK AO2 T02100063
KPMV - Plattsmouth Muni, Nebraska, USA
Distance from station: ENE 71mi, 114km
Updated: Sat, 18-May-2024 10:55pm CDT
Clear
Clear
 Wind from N
Wind: N 3 mph , 6 km/h
Temperature: 70°F , 21°C
Dew Point: 46°F , 8°C
Humidity: 43%
Barometer: 29.97 inHg , 1014.9 hPa
Clouds: Clear
Visibility: 10 miles , 16 km
2024/05/19 03:55 KPMV 190355Z AUTO 35003KT 10SM CLR 21/08 A2997 RMK AO2 T02070079
 
KAFK - Nebraska City, Nebraska, USA
Distance from station: E 72mi, 116km
Updated: Sat, 18-May-2024 10:55pm CDT
Clear
Clear
 Wind from N
Wind: N 6 mph , 9 km/h
Temperature: 68°F , 20°C
Dew Point: 50°F , 10°C
Humidity: 53%
Barometer: 29.96 inHg , 1014.6 hPa
Clouds: Clear
Visibility: 10 miles , 16 km
2024/05/19 03:55 KAFK 190355Z AUTO 01005KT 10SM CLR 20/10 A2996 RMK AO2 T01990100
KOFF - Offutt Afb/Belle, Nebraska, USA
Distance from station: ENE 75mi, 121km
Updated: Sat, 18-May-2024 10:55pm CDT
Clear
Clear
 Wind from N
Wind: N 8 mph , 13 km/h
Temperature: 72°F , 22°C
Dew Point: 45°F , 7°C
Humidity: 38%
Barometer: 29.95 inHg , 1014.2 hPa
Clouds: Clear
Visibility: 10 miles , 16 km
2024/05/19 03:55 KOFF 190355Z 01007KT 10SM CLR 22/07 A2995 RMK AO2A SLP138 T02170068
 
KBTA - Blair Muni, Nebraska, USA
Distance from station: NE 78mi, 125km
Updated: Sat, 18-May-2024 10:55pm CDT
Clear
Clear
 Wind from N
Wind: N 9 mph , 15 km/h
Temperature: 66°F , 19°C
Dew Point: 41°F , 5°C
Humidity: 40%
Barometer: 29.98 inHg , 1015.2 hPa
Clouds: Clear
Visibility: 10 miles , 16 km
2024/05/19 03:55 KBTA 190355Z AUTO 35008KT 10SM CLR 19/05 A2998 RMK AO2 T01880050
KCNK - Concordia, Kansas, USA
Distance from station: SSW 80mi, 129km
Updated: Sat, 18-May-2024 10:55pm CDT
Clear
Clear
 Wind from E
Wind: E 3 mph , 6 km/h
Temperature: 68°F , 20°C
Dew Point: 54°F , 12°C
Humidity: 60%
Barometer: 29.94 inHg , 1013.9 hPa
Clouds: Clear
Visibility: 10 miles , 16 km
2024/05/19 03:55 KCNK 190355Z AUTO 08003KT 10SM CLR 20/12 A2994 RMK AO2 SLP124 T02000117
 
KOMA - Omaha/Eppley, Nebraska, USA
Distance from station: NE 82mi, 133km
Updated: Sat, 18-May-2024 10:52pm CDT
Clear
Clear
 Wind from N
Wind: N 7 mph , 11 km/h
Temperature: 63°F , 17°C
Dew Point: 48°F , 9°C
Humidity: 59%
Barometer: 29.96 inHg , 1014.6 hPa
Clouds: Clear
Visibility: 10 miles , 16 km
2024/05/19 03:52 KOMA 190352Z 01006KT 10SM CLR 17/09 A2996 RMK AO2 SLP139 T01720089
KBVN - Albion Muni, Nebraska, USA
Distance from station: NNW 86mi, 138km
Updated: Sat, 18-May-2024 10:55pm CDT
Clear
Clear
 Wind from calm
Wind: Calm
Temperature: 57°F , 14°C
Dew Point: 39°F , 4°C
Humidity: 51%
Barometer: 30.01 inHg , 1016.3 hPa
Clouds: Clear
Visibility: 10 miles , 16 km
2024/05/19 03:55 KBVN 190355Z AUTO 00000KT 10SM CLR 14/04 A3001 RMK AO2 T01420043
 
KCBF - Council Bluffs, Iowa, USA
Distance from station: ENE 87mi, 139km
Updated: Sat, 18-May-2024 10:55pm CDT
Clear
Clear
 Wind from N
Wind: N 8 mph , 13 km/h
Temperature: 66°F , 19°C
Dew Point: 46°F , 8°C
Humidity: 49%
Barometer: 29.95 inHg , 1014.2 hPa
Clouds: Clear
Visibility: 10 miles , 16 km
2024/05/19 03:55 KCBF 190355Z AUTO 36007KT 10SM CLR 19/08 A2995 RMK AO2
KOFK - Norfolk, Nebraska, USA
Distance from station: N 92mi, 148km
Updated: Sat, 18-May-2024 10:56pm CDT
Clear
Clear
 Wind from NNW
Wind: NNW 3 mph , 6 km/h
Temperature: 54°F , 12°C
Dew Point: 45°F , 7°C
Humidity: 72%
Barometer: 30.00 inHg , 1015.9 hPa
Clouds: Clear
Visibility: 10 miles , 16 km
2024/05/19 03:56 KOFK 190356Z AUTO 34003KT 10SM CLR 12/07 A3000 RMK AO2 SLP156 T01170067

Metar display script from Saratoga-Weather.org